createdAt,value
2019-06-07T00:01:19.306Z,27.57
2019-06-07T00:03:49.758Z,24.77
2019-06-07T00:06:24.553Z,27.60
2019-06-07T00:08:52.285Z,28.33
2019-06-07T00:11:22.746Z,31.73
2019-06-07T00:13:54.792Z,28.50
2019-06-07T00:16:25.292Z,26.73
2019-06-07T00:18:55.831Z,30.80
2019-06-07T00:22:12.873Z,28.20
2019-06-07T00:23:58.411Z,31.20
2019-06-07T00:26:28.809Z,31.43
2019-06-07T00:28:59.320Z,30.10
2019-06-07T00:31:29.948Z,28.00
2019-06-07T00:34:01.198Z,27.90
2019-06-07T00:36:31.634Z,28.07
2019-06-07T00:39:02.099Z,33.63
2019-06-07T00:41:34.216Z,30.03
2019-06-07T00:44:05.053Z,25.03
2019-06-07T00:46:35.488Z,29.67
2019-06-07T00:49:05.880Z,35.30
2019-06-07T00:51:50.147Z,26.73
2019-06-07T00:54:08.477Z,29.50
2019-06-07T00:56:38.940Z,30.67
2019-06-07T00:59:11.738Z,26.70
2019-06-07T01:01:41.666Z,26.93
2019-06-07T01:04:13.138Z,27.80
2019-06-07T01:06:44.257Z,27.00
2019-06-07T01:09:15.330Z,35.53
2019-06-07T01:11:46.052Z,35.40
2019-06-07T01:14:21.451Z,32.87
2019-06-07T01:16:57.042Z,30.40
2019-06-07T01:19:22.261Z,32.37
2019-06-07T01:21:52.825Z,32.33
2019-06-07T01:24:25.765Z,30.63
2019-06-07T01:26:55.389Z,30.10
2019-06-07T01:29:30.010Z,31.70
2019-06-07T01:31:58.306Z,31.73
2019-06-07T01:34:29.715Z,29.90
2019-06-07T01:37:00.195Z,30.70
2019-06-07T01:39:31.812Z,28.33
2019-06-07T01:42:02.748Z,30.37
2019-06-07T01:44:33.260Z,31.47
2019-06-07T01:47:03.653Z,29.03
2019-06-07T01:49:34.089Z,29.83
2019-06-07T01:52:04.558Z,36.40
2019-06-07T01:54:56.619Z,39.00
2019-06-07T01:57:07.121Z,34.20
2019-06-07T01:59:37.554Z,32.33
2019-06-07T02:02:07.990Z,33.70
2019-06-07T02:04:39.566Z,36.00
2019-06-07T02:07:09.993Z,35.07
2019-06-07T02:09:40.528Z,41.73
2019-06-07T02:12:25.617Z,37.67
2019-06-07T02:14:43.048Z,34.33
2019-06-07T02:17:13.486Z,32.83
2019-06-07T02:19:43.953Z,34.37
2019-06-07T02:22:14.389Z,32.53
2019-06-07T02:24:44.821Z,34.87
2019-06-07T02:27:15.212Z,36.60
2019-06-07T02:29:45.650Z,36.47
2019-06-07T02:32:16.086Z,30.73
2019-06-07T02:34:46.520Z,33.10
2019-06-07T02:37:16.929Z,35.70
2019-06-07T02:39:47.362Z,29.87
2019-06-07T02:42:17.797Z,32.57
2019-06-07T02:44:48.399Z,31.10
2019-06-07T02:47:18.830Z,31.77
2019-06-07T02:49:49.233Z,33.83
2019-06-07T02:52:19.656Z,30.90
2019-06-07T02:54:50.058Z,30.77
2019-06-07T02:57:20.499Z,29.53
2019-06-07T03:00:06.211Z,33.23
2019-06-07T03:02:25.533Z,33.37
2019-06-07T03:04:56.442Z,30.23
2019-06-07T03:07:30.041Z,30.20
2019-06-07T03:10:01.260Z,30.50
2019-06-07T03:12:34.003Z,40.00
2019-06-07T03:15:06.276Z,29.67
2019-06-07T03:17:40.872Z,33.07
2019-06-07T03:20:14.185Z,32.93
2019-06-07T03:22:44.983Z,35.20
2019-06-07T03:25:15.422Z,36.13
2019-06-07T03:27:49.779Z,38.20
2019-06-07T03:32:52.056Z,40.77
2019-06-07T03:35:22.812Z,37.33
2019-06-07T03:37:53.261Z,38.47
2019-06-07T03:40:23.662Z,38.23
2019-06-07T03:42:54.127Z,38.67
2019-06-07T03:45:24.585Z,38.13
2019-06-07T03:47:55.018Z,32.57
2019-06-07T03:50:25.527Z,60.40
2019-06-07T03:52:55.929Z,37.07
2019-06-07T03:55:27.798Z,38.53
2019-06-07T03:58:30.790Z,42.40
2019-06-07T04:00:34.075Z,32.93
2019-06-07T04:03:04.124Z,34.23
2019-06-07T04:05:40.268Z,34.77
2019-06-07T04:08:06.829Z,39.90
2019-06-07T04:10:55.636Z,35.47
2019-06-07T04:13:09.416Z,33.73
2019-06-07T04:15:41.449Z,33.90
2019-06-07T04:18:12.110Z,31.13
2019-06-07T04:20:43.512Z,36.97
2019-06-07T04:23:27.737Z,36.30
2019-06-07T04:25:46.082Z,35.40
2019-06-07T04:28:16.495Z,36.50
2019-06-07T04:30:47.971Z,35.23
2019-06-07T04:33:18.411Z,31.53
2019-06-07T04:35:48.807Z,32.77
2019-06-07T04:38:19.234Z,30.27
2019-06-07T04:40:51.107Z,31.23
2019-06-07T04:43:21.541Z,38.07
2019-06-07T04:45:51.940Z,35.03
2019-06-07T04:48:22.498Z,35.43
2019-06-07T04:50:55.565Z,33.67
2019-06-07T04:53:26.013Z,34.10
2019-06-07T04:55:57.042Z,64.13
2019-06-07T04:58:30.059Z,32.43
2019-06-07T05:01:03.374Z,38.07
2019-06-07T05:03:37.052Z,29.93
2019-06-07T05:06:04.249Z,47.63
2019-06-07T05:08:38.086Z,32.47
2019-06-07T05:11:07.748Z,30.73
2019-06-07T05:13:40.490Z,31.70
2019-06-07T05:16:10.523Z,32.30
2019-06-07T05:18:43.146Z,27.93
2019-06-07T05:21:13.064Z,35.97
2019-06-07T05:24:05.725Z,32.43
2019-06-07T05:26:15.607Z,33.17
2019-06-07T05:28:46.045Z,32.57
2019-06-07T05:31:16.441Z,33.33
2019-06-07T05:33:46.884Z,31.50
2019-06-07T05:36:17.273Z,33.60
2019-06-07T05:38:47.721Z,30.73
2019-06-07T05:41:18.121Z,43.27
2019-06-07T05:44:09.180Z,33.73
2019-06-07T05:46:20.696Z,42.60
2019-06-07T05:48:52.104Z,40.30
2019-06-07T05:51:22.564Z,31.23
2019-06-07T05:53:53.030Z,31.77
2019-06-07T05:56:23.482Z,33.47
2019-06-07T05:58:53.956Z,31.00
2019-06-07T06:01:42.842Z,52.47
2019-06-07T06:03:56.476Z,50.03
2019-06-07T06:06:26.938Z,33.03
2019-06-07T06:09:12.907Z,29.93
2019-06-07T06:11:45.879Z,34.57
2019-06-07T06:14:07.969Z,28.07
2019-06-07T06:16:34.686Z,35.93
2019-06-07T06:19:05.279Z,33.37
2019-06-07T06:21:36.215Z,28.63
2019-06-07T06:24:06.693Z,24.77
2019-06-07T06:26:45.438Z,29.23
2019-06-07T06:29:09.370Z,23.07
2019-06-07T06:31:42.050Z,25.05
2019-06-07T06:34:11.940Z,27.50
2019-06-07T06:36:44.629Z,25.27
2019-06-07T06:39:14.538Z,26.97
2019-06-07T06:41:57.146Z,26.25
2019-06-07T06:44:17.176Z,23.18
2019-06-07T06:46:57.080Z,23.00
2019-06-07T06:49:19.811Z,27.22
2019-06-07T06:51:53.425Z,24.35
2019-06-07T06:54:39.526Z,23.62
2019-06-07T06:57:17.178Z,23.25
2019-06-07T06:59:38.527Z,22.52
2019-06-07T07:01:59.070Z,21.65
2019-06-07T07:04:30.099Z,21.07
2019-06-07T07:07:00.622Z,26.20
2019-06-07T07:09:31.014Z,25.57
2019-06-07T07:12:12.295Z,29.07
2019-06-07T07:14:33.586Z,27.22
2019-06-07T07:17:04.088Z,25.20
2019-06-07T07:19:34.514Z,22.58
2019-06-07T07:22:05.001Z,26.57
2019-06-07T07:24:35.440Z,27.45
2019-06-07T07:27:06.008Z,30.27
2019-06-07T07:29:36.452Z,20.55
2019-06-07T07:32:06.853Z,24.40
2019-06-07T07:34:37.729Z,30.82
2019-06-07T07:37:08.239Z,25.65
2019-06-07T07:39:38.675Z,30.32
2019-06-07T07:42:20.613Z,25.20
2019-06-07T07:44:41.214Z,32.67
2019-06-07T07:47:11.650Z,62.48
2019-06-07T07:49:42.090Z,29.92
2019-06-07T07:52:12.528Z,31.25
2019-06-07T07:54:44.228Z,31.90
2019-06-07T07:57:14.745Z,30.15
2019-06-07T08:00:01.508Z,31.20
2019-06-07T08:02:17.285Z,28.05
2019-06-07T08:07:20.793Z,36.75
2019-06-07T08:09:57.733Z,33.30
2019-06-07T08:12:25.003Z,30.45
2019-06-07T08:14:58.637Z,33.78
2019-06-07T08:17:27.560Z,29.85
2019-06-07T08:20:02.574Z,28.90
2019-06-07T08:22:30.974Z,33.18
2019-06-07T08:25:04.103Z,28.38
2019-06-07T08:27:34.186Z,33.02
2019-06-07T08:30:47.074Z,30.15
2019-06-07T08:32:46.165Z,31.48
2019-06-07T08:36:01.922Z,42.67
2019-06-07T08:38:29.814Z,43.70
2019-06-07T08:40:23.801Z,39.55
2019-06-07T08:43:15.227Z,30.08
2019-06-07T08:45:29.329Z,29.00
2019-06-07T08:48:09.150Z,29.07
2019-06-07T08:50:32.090Z,28.90
2019-06-07T08:53:11.454Z,32.65
2019-06-07T08:55:34.803Z,27.27
2019-06-07T08:58:08.781Z,28.98
2019-06-07T09:00:47.442Z,28.12
2019-06-07T09:03:10.545Z,24.57
2019-06-07T09:05:40.987Z,25.97
2019-06-07T09:08:29.081Z,25.27
2019-06-07T09:10:43.597Z,30.52
2019-06-07T09:13:14.007Z,27.82
2019-06-07T09:15:44.436Z,26.20
2019-06-07T09:18:42.030Z,22.50
2019-06-07T09:20:49.491Z,21.93
2019-06-07T09:23:20.066Z,22.42
2019-06-07T09:26:00.959Z,28.52
2019-06-07T09:28:24.294Z,21.65
2019-06-07T09:30:57.123Z,26.02
2019-06-07T09:33:26.840Z,23.40
2019-06-07T09:35:58.640Z,23.77
2019-06-07T09:38:29.871Z,20.92
2019-06-07T09:41:02.430Z,20.48
2019-06-07T09:46:11.829Z,20.43
2019-06-07T09:51:19.027Z,21.17
2019-06-07T09:53:41.218Z,20.82
2019-06-07T09:56:12.323Z,22.48
2019-06-07T09:58:52.540Z,19.82
2019-06-07T10:01:15.099Z,22.13
2019-06-07T10:03:45.498Z,16.87
2019-06-07T10:06:15.931Z,18.17
2019-06-07T10:10:04.777Z,18.02
2019-06-07T10:11:18.456Z,17.85
2019-06-07T10:13:48.894Z,18.20
2019-06-07T10:16:19.295Z,18.73
2019-06-07T10:18:49.739Z,22.73
2019-06-07T10:21:20.141Z,19.32
2019-06-07T10:23:50.613Z,19.67
2019-06-07T10:26:21.054Z,24.75
2019-06-07T10:28:53.514Z,23.65
2019-06-07T10:31:23.683Z,22.42
2019-06-07T10:33:54.101Z,26.60
2019-06-07T10:36:24.538Z,24.32
2019-06-07T10:38:54.937Z,23.35
2019-06-07T10:41:26.355Z,25.35
2019-06-07T10:43:57.085Z,21.45
2019-06-07T10:46:27.687Z,23.45
2019-06-07T10:48:58.176Z,25.62
2019-06-07T10:51:28.816Z,20.68
2019-06-07T10:53:59.262Z,20.32
2019-06-07T10:56:29.660Z,24.52
2019-06-07T10:59:00.104Z,32.55
2019-06-07T11:01:30.602Z,26.65
2019-06-07T11:04:01.000Z,19.35
2019-06-07T11:06:31.443Z,16.60
2019-06-07T11:09:01.842Z,20.35
2019-06-07T11:11:33.865Z,16.25
2019-06-07T11:14:06.421Z,16.32
2019-06-07T11:16:36.994Z,37.00
2019-06-07T11:19:08.071Z,26.10
2019-06-07T11:21:38.569Z,46.10
2019-06-07T11:24:10.136Z,16.35
2019-06-07T11:26:41.725Z,25.57
2019-06-07T11:29:12.768Z,23.98
2019-06-07T11:31:43.261Z,42.58
2019-06-07T11:34:14.675Z,36.17
2019-06-07T11:36:45.189Z,37.15
2019-06-07T11:39:15.657Z,46.85
2019-06-07T11:41:46.100Z,31.48
2019-06-07T11:44:17.236Z,38.75
2019-06-07T11:46:47.857Z,30.10
2019-06-07T11:49:20.314Z,36.05
2019-06-07T11:51:50.514Z,31.68
2019-06-07T11:54:20.913Z,38.58
2019-06-07T11:56:51.366Z,42.38
2019-06-07T11:59:22.828Z,35.70
2019-06-07T12:01:53.328Z,33.83
2019-06-07T12:04:34.555Z,23.43
2019-06-07T12:06:55.932Z,23.03
2019-06-07T12:09:28.145Z,20.33
2019-06-07T12:11:58.771Z,19.42
2019-06-07T12:14:29.210Z,17.73
2019-06-07T12:16:59.618Z,19.70
2019-06-07T12:19:30.131Z,18.97
2019-06-07T12:22:00.534Z,18.98
2019-06-07T12:24:30.973Z,16.67
2019-06-07T12:27:01.413Z,18.55
2019-06-07T12:29:33.947Z,17.85
2019-06-07T12:32:04.011Z,17.27
2019-06-07T12:34:34.410Z,16.55
2019-06-07T12:37:04.922Z,20.97
2019-06-07T12:39:35.496Z,13.88
2019-06-07T12:42:06.039Z,19.85
2019-06-07T12:44:36.787Z,18.12
2019-06-07T12:47:07.235Z,15.40
2019-06-07T12:49:37.670Z,12.82
2019-06-07T12:52:08.062Z,13.83
2019-06-07T12:54:38.500Z,12.90
2019-06-07T12:57:08.912Z,13.50
2019-06-07T12:59:39.413Z,10.53
2019-06-07T13:02:09.798Z,11.73
2019-06-07T13:04:40.228Z,10.45
2019-06-07T13:07:10.662Z,11.78
2019-06-07T13:09:42.064Z,11.28
2019-06-07T13:12:12.492Z,13.68
2019-06-07T13:14:42.928Z,10.13
2019-06-07T13:17:13.356Z,11.10
2019-06-07T13:19:43.755Z,11.00
2019-06-07T13:22:14.196Z,12.65
2019-06-07T13:24:44.662Z,10.63
2019-06-07T13:27:16.173Z,10.82
2019-06-07T13:29:47.069Z,11.63
2019-06-07T13:32:17.527Z,8.40
2019-06-07T13:34:47.973Z,14.43
2019-06-07T13:37:19.666Z,14.28
2019-06-07T13:39:50.222Z,10.10
2019-06-07T13:42:20.660Z,11.63
2019-06-07T13:44:51.126Z,9.60
2019-06-07T13:47:23.006Z,10.38
2019-06-07T13:49:55.169Z,11.80
2019-06-07T13:52:25.815Z,11.33
2019-06-07T13:54:56.198Z,17.75
2019-06-07T13:57:28.084Z,15.50
2019-06-07T13:59:58.576Z,13.72
2019-06-07T14:02:29.834Z,15.20
2019-06-07T14:05:01.407Z,12.78
2019-06-07T14:07:31.942Z,18.52
2019-06-07T14:10:02.533Z,18.37
2019-06-07T14:12:33.597Z,17.23
2019-06-07T14:15:05.772Z,17.00
2019-06-07T14:17:36.244Z,18.25
2019-06-07T14:20:09.302Z,14.98
2019-06-07T14:22:40.317Z,15.08
2019-06-07T14:25:11.252Z,15.23
2019-06-07T14:27:41.743Z,13.08
2019-06-07T14:30:12.689Z,15.30
2019-06-07T14:32:43.136Z,15.80
2019-06-07T14:35:13.763Z,14.78
2019-06-07T14:37:44.210Z,12.35
2019-06-07T14:40:16.518Z,14.10
2019-06-07T14:42:47.027Z,16.70
2019-06-07T14:45:17.985Z,20.00
2019-06-07T14:47:48.380Z,18.02
2019-06-07T14:50:19.338Z,22.48
2019-06-07T14:52:49.734Z,18.55
2019-06-07T14:55:20.243Z,15.95
2019-06-07T14:57:50.647Z,17.48
2019-06-07T15:00:24.431Z,14.78
2019-06-07T15:02:54.931Z,15.28
2019-06-07T15:05:31.329Z,16.67
2019-06-07T15:08:02.980Z,16.40
2019-06-07T15:10:33.743Z,13.50
2019-06-07T15:13:07.362Z,18.80
2019-06-07T15:15:38.903Z,17.40
2019-06-07T15:18:09.559Z,16.15
2019-06-07T15:20:40.028Z,16.85
2019-06-07T15:23:10.511Z,14.47
2019-06-07T15:25:40.997Z,13.68
2019-06-07T15:28:11.391Z,12.15
2019-06-07T15:30:41.868Z,12.98
2019-06-07T15:33:12.300Z,15.03
2019-06-07T15:35:42.732Z,15.43
2019-06-07T15:38:13.161Z,14.60
2019-06-07T15:40:43.551Z,11.60
2019-06-07T15:43:13.976Z,10.77
2019-06-07T15:45:44.839Z,12.13
2019-06-07T15:48:15.542Z,11.65
2019-06-07T15:50:45.981Z,10.60
2019-06-07T15:53:16.407Z,9.53
2019-06-07T15:55:46.836Z,9.80
2019-06-07T15:58:17.233Z,10.58
2019-06-07T16:00:49.996Z,8.78
2019-06-07T16:03:19.833Z,12.33
2019-06-07T16:05:50.284Z,8.63
2019-06-07T16:08:20.665Z,12.68
2019-06-07T16:10:51.091Z,12.33
2019-06-07T16:13:21.500Z,8.73
2019-06-07T16:15:51.931Z,10.40
2019-06-07T16:18:22.399Z,17.35
2019-06-07T16:20:52.864Z,14.47
2019-06-07T16:23:23.292Z,13.83
2019-06-07T16:25:54.662Z,13.73
2019-06-07T16:28:25.096Z,13.70
2019-06-07T16:30:55.542Z,18.63
2019-06-07T16:33:25.938Z,16.77
2019-06-07T16:35:56.540Z,17.17
2019-06-07T16:38:26.934Z,15.83
2019-06-07T16:40:57.442Z,13.15
2019-06-07T16:43:27.878Z,14.53
2019-06-07T16:45:58.352Z,18.60
2019-06-07T16:48:28.785Z,11.87
2019-06-07T16:50:59.231Z,11.30
2019-06-07T16:53:29.671Z,10.60
2019-06-07T16:56:00.081Z,10.43
2019-06-07T16:58:30.510Z,10.67
2019-06-07T17:01:00.912Z,12.13
2019-06-07T17:03:32.795Z,10.43
2019-06-07T17:06:03.354Z,12.33
2019-06-07T17:08:33.815Z,11.17
2019-06-07T17:11:04.519Z,9.83
2019-06-07T17:13:35.950Z,10.43
2019-06-07T17:16:06.447Z,13.30
2019-06-07T17:18:37.248Z,13.77
2019-06-07T17:21:07.852Z,11.40
2019-06-07T17:23:39.139Z,11.57
2019-06-07T17:26:09.659Z,14.20
2019-06-07T17:28:41.620Z,13.03
2019-06-07T17:31:14.055Z,14.87
2019-06-07T17:33:44.488Z,16.53
2019-06-07T17:36:15.022Z,14.97
2019-06-07T17:38:46.551Z,15.10
2019-06-07T17:41:18.443Z,17.97
2019-06-07T17:43:57.770Z,14.37
2019-06-07T17:46:22.077Z,16.67
2019-06-07T17:48:52.502Z,14.53
2019-06-07T17:51:23.005Z,16.30
2019-06-07T17:53:53.402Z,15.43
2019-06-07T17:56:23.842Z,17.90
2019-06-07T17:58:54.246Z,16.57
2019-06-07T18:01:24.678Z,18.67
2019-06-07T18:03:55.077Z,18.30
2019-06-07T18:06:25.809Z,18.50
2019-06-07T18:08:56.878Z,18.37
2019-06-07T18:11:27.277Z,18.70
2019-06-07T18:14:10.151Z,17.37
2019-06-07T18:16:30.102Z,20.77
2019-06-07T18:19:00.537Z,19.97
2019-06-07T18:21:30.977Z,19.30
2019-06-07T18:24:01.382Z,21.13
2019-06-07T18:26:31.838Z,20.43
2019-06-07T18:29:02.239Z,18.57
2019-06-07T18:31:32.685Z,18.63
2019-06-07T18:34:03.075Z,21.17
2019-06-07T18:36:33.511Z,22.83
2019-06-07T18:39:05.963Z,22.57
2019-06-07T18:41:36.428Z,20.83
2019-06-07T18:44:20.855Z,22.83
2019-06-07T18:46:39.028Z,25.07
2019-06-07T18:49:09.481Z,21.17
2019-06-07T18:51:39.915Z,27.60
2019-06-07T18:54:10.348Z,27.57
2019-06-07T18:56:40.792Z,23.90
2019-06-07T18:59:11.265Z,22.43
2019-06-07T19:01:41.708Z,22.83
2019-06-07T19:04:12.149Z,27.70
2019-06-07T19:06:42.657Z,26.73
2019-06-07T19:09:13.112Z,25.90
2019-06-07T19:11:43.508Z,23.63
2019-06-07T19:14:13.963Z,27.13
2019-06-07T19:16:44.360Z,25.33
2019-06-07T19:19:14.813Z,27.53
2019-06-07T19:21:48.133Z,25.43
2019-06-07T19:24:18.668Z,25.13
2019-06-07T19:26:50.404Z,24.17
2019-06-07T19:29:21.058Z,28.43
2019-06-07T19:31:52.891Z,29.03
2019-06-07T19:34:23.373Z,29.40
2019-06-07T19:36:53.812Z,29.80
2019-06-07T19:39:24.211Z,26.67
2019-06-07T19:41:55.722Z,27.07
2019-06-07T19:44:26.443Z,30.43
2019-06-07T19:46:56.880Z,31.57
2019-06-07T19:49:27.417Z,30.67
2019-06-07T19:51:58.994Z,29.77
2019-06-07T19:54:29.527Z,34.77
2019-06-07T19:56:59.945Z,35.30
2019-06-07T19:59:31.437Z,38.87
2019-06-07T20:02:02.176Z,35.27
2019-06-07T20:04:32.649Z,34.73
2019-06-07T20:07:03.933Z,38.57
2019-06-07T20:09:35.327Z,37.00
2019-06-07T20:12:06.015Z,34.47
2019-06-07T20:14:36.403Z,35.43
2019-06-07T20:17:07.001Z,37.70
2019-06-07T20:19:38.321Z,33.87
2019-06-07T20:22:09.543Z,38.63
2019-06-07T20:24:40.064Z,38.20
2019-06-07T20:27:10.470Z,37.73
2019-06-07T20:29:40.904Z,37.70
2019-06-07T20:32:11.344Z,36.67
2019-06-07T20:34:44.645Z,37.63
2019-06-07T20:37:13.878Z,32.93
2019-06-07T20:39:44.286Z,32.40
2019-06-07T20:42:14.720Z,26.83
2019-06-07T20:44:45.112Z,33.40
2019-06-07T20:47:15.561Z,28.07
2019-06-07T20:49:46.075Z,29.33
2019-06-07T20:52:16.519Z,34.63
2019-06-07T20:54:47.079Z,32.37
2019-06-07T20:57:17.772Z,29.30
2019-06-07T20:59:48.208Z,22.57
2019-06-07T21:02:19.608Z,25.70
2019-06-07T21:04:50.089Z,23.70
2019-06-07T21:07:20.532Z,29.30
2019-06-07T21:09:50.938Z,28.17
2019-06-07T21:12:21.517Z,34.90
2019-06-07T21:14:51.991Z,38.13
2019-06-07T21:17:22.443Z,32.20
2019-06-07T21:19:53.076Z,31.27
2019-06-07T21:22:23.544Z,26.87
2019-06-07T21:24:55.729Z,31.70
2019-06-07T21:27:26.192Z,36.03
2019-06-07T21:29:56.684Z,40.03
2019-06-07T21:32:27.138Z,39.53
2019-06-07T21:34:57.573Z,37.87
2019-06-07T21:37:28.034Z,38.67
2019-06-07T21:40:01.828Z,49.87
2019-06-07T21:42:32.669Z,42.17
2019-06-07T21:45:05.686Z,40.13
2019-06-07T21:47:35.298Z,35.63
2019-06-07T21:50:08.983Z,42.70
2019-06-07T21:52:39.565Z,44.03
2019-06-07T21:55:11.607Z,38.70
2019-06-07T21:57:42.080Z,37.90
2019-06-07T22:00:18.878Z,38.90
2019-06-07T22:02:51.008Z,37.83
2019-06-07T22:05:21.501Z,38.80
2019-06-07T22:07:52.929Z,37.17
2019-06-07T22:10:23.430Z,39.43
2019-06-07T22:12:53.879Z,40.90
2019-06-07T22:15:34.046Z,39.87
2019-06-07T22:17:56.548Z,48.67
2019-06-07T22:20:27.262Z,50.57
2019-06-07T22:22:57.652Z,50.20
2019-06-07T22:25:28.111Z,54.20
2019-06-07T22:27:58.513Z,57.20
2019-06-07T22:30:28.953Z,62.57
2019-06-07T22:32:59.357Z,58.33
2019-06-07T22:35:29.804Z,58.80
2019-06-07T22:38:00.238Z,52.53
2019-06-07T22:40:30.678Z,62.63
2019-06-07T22:43:01.268Z,56.80
2019-06-07T22:45:31.798Z,47.57
2019-06-07T22:48:02.263Z,45.23
2019-06-07T22:50:32.656Z,49.97
2019-06-07T22:53:03.165Z,41.47
2019-06-07T22:55:33.665Z,42.20
2019-06-07T22:58:04.057Z,42.63
2019-06-07T23:00:36.199Z,47.17
2019-06-07T23:03:08.402Z,50.23
2019-06-07T23:05:39.012Z,42.50
2019-06-07T23:08:10.860Z,42.87
2019-06-07T23:10:41.491Z,50.03
2019-06-07T23:13:11.928Z,46.13
2019-06-07T23:15:42.402Z,37.17
2019-06-07T23:18:13.453Z,33.70
2019-06-07T23:20:43.914Z,34.37
2019-06-07T23:23:14.908Z,42.83
2019-06-07T23:25:45.455Z,29.60
2019-06-07T23:28:16.599Z,29.20
2019-06-07T23:30:47.164Z,34.67
2019-06-07T23:33:18.821Z,33.07
2019-06-07T23:35:49.280Z,31.67
2019-06-07T23:38:19.714Z,33.47
2019-06-07T23:40:50.151Z,32.87
2019-06-07T23:43:21.571Z,44.63
2019-06-07T23:45:53.036Z,37.47
2019-06-07T23:48:23.476Z,40.33
2019-06-07T23:50:53.875Z,44.87
2019-06-07T23:53:24.314Z,41.03
2019-06-07T23:55:54.704Z,38.07
2019-06-07T23:58:25.142Z,39.00
